Time;durP1;ratioP1;P1;durP2;ratioP2;P2;SDS_P1;SDS_P2;PMS_P1;PMS_P2;Temp;Humidity;BMP_temperature;BMP_pressure;BME280_temperature;BME280_humidity;BME280_pressure;Samples;Min_cycle;Max_cycle;Signal;HPM_P1;HPM_P2
2021/11/14 00:00:11;;;;;;;0.68;0.50;;;20.00;64.60;;;;;;6189453;23;20041;-72
2021/11/14 00:02:37;;;;;;;1.17;0.70;;;20.00;64.70;;;;;;6215976;23;20024;-72
2021/11/14 00:05:03;;;;;;;0.73;0.50;;;20.00;64.70;;;;;;6215855;23;20001;-72
2021/11/14 00:07:29;;;;;;;1.00;0.50;;;20.00;64.70;;;;;;6164565;23;20392;-72
2021/11/14 00:09:55;;;;;;;1.17;0.63;;;20.00;64.80;;;;;;6215495;23;20039;-72
2021/11/14 00:12:20;;;;;;;1.58;0.38;;;20.00;64.80;;;;;;6215828;23;20075;-72
2021/11/14 00:14:46;;;;;;;0.50;0.40;;;20.00;64.80;;;;;;6189435;23;20005;-72
2021/11/14 00:17:12;;;;;;;0.40;0.30;;;19.90;64.70;;;;;;6215788;23;20003;-72
2021/11/14 00:19:37;;;;;;;0.82;0.52;;;20.00;64.80;;;;;;6164635;23;20007;-72
2021/11/14 00:22:03;;;;;;;1.98;0.50;;;20.00;64.90;;;;;;6215594;23;20080;-72
2021/11/14 00:24:28;;;;;;;1.20;0.40;;;19.90;64.90;;;;;;6188630;23;20072;-72
2021/11/14 00:26:54;;;;;;;1.73;0.35;;;19.90;64.90;;;;;;6215688;23;20039;-72
2021/11/14 00:29:20;;;;;;;1.48;0.50;;;19.90;64.90;;;;;;6215688;23;20496;-72
2021/11/14 00:31:45;;;;;;;1.38;0.60;;;19.90;64.90;;;;;;6215752;23;20004;-72
2021/11/14 00:34:11;;;;;;;1.55;0.40;;;19.90;64.90;;;;;;6164085;23;20000;-72
2021/11/14 00:36:38;;;;;;;2.05;0.40;;;19.90;65.00;;;;;;6215688;23;19997;-72
2021/11/14 00:39:06;;;;;;;3.47;1.00;;;19.90;65.00;;;;;;6215122;23;20017;-72
2021/11/14 00:41:32;;;;;;;0.63;0.30;;;19.90;65.00;;;;;;6189479;23;20001;-72
2021/11/14 00:43:58;;;;;;;0.50;0.40;;;19.90;65.00;;;;;;6189130;23;20076;-72
2021/11/14 00:46:23;;;;;;;0.40;0.40;;;19.90;65.10;;;;;;6215394;23;20001;-72
2021/11/14 00:48:49;;;;;;;0.98;0.40;;;19.90;65.00;;;;;;6189081;23;19997;-72
2021/11/14 00:51:17;;;;;;;0.40;0.30;;;19.90;65.10;;;;;;6215338;23;20005;-72
2021/11/14 00:53:43;;;;;;;0.63;0.43;;;19.90;65.10;;;;;;6164074;23;20060;-72
2021/11/14 00:56:09;;;;;;;0.98;0.40;;;19.90;65.20;;;;;;6215242;23;20005;-72
2021/11/14 00:58:34;;;;;;;2.47;0.50;;;19.90;65.20;;;;;;6189097;23;20004;-72
2021/11/14 01:01:01;;;;;;;0.70;0.32;;;19.90;65.20;;;;;;6215267;23;19997;-72
2021/11/14 01:03:27;;;;;;;4.45;0.50;;;19.90;65.20;;;;;;6188910;23;20001;-72
2021/11/14 01:05:52;;;;;;;0.60;0.40;;;19.90;65.30;;;;;;6215424;23;20031;-72
2021/11/14 01:08:18;;;;;;;1.73;0.25;;;19.90;65.20;;;;;;6188165;23;20001;-72
2021/11/14 01:10:46;;;;;;;1.52;0.65;;;19.90;66.30;;;;;;6164238;23;20055;-72
2021/11/14 01:13:11;;;;;;;1.15;0.40;;;19.90;65.30;;;;;;6163764;23;20042;-72
2021/11/14 01:15:37;;;;;;;0.88;0.30;;;19.90;65.30;;;;;;6215088;23;20001;-72
2021/11/14 01:18:03;;;;;;;1.17;0.40;;;19.90;65.30;;;;;;6188796;23;20054;-72
2021/11/14 01:20:34;;;;;;;2.15;0.50;;;19.80;65.30;;;;;;6214738;23;20000;-72
2021/11/14 01:23:01;;;;;;;0.90;0.40;;;19.90;65.30;;;;;;6164121;23;19996;-72
2021/11/14 01:25:27;;;;;;;0.98;0.60;;;19.80;65.40;;;;;;6188818;23;20052;-72
2021/11/14 01:27:53;;;;;;;0.45;0.30;;;19.90;65.40;;;;;;6188816;23;20051;-72
2021/11/14 01:30:23;;;;;;;0.80;0.40;;;19.90;65.50;;;;;;6188516;23;20008;-72
2021/11/14 01:32:49;;;;;;;0.40;0.35;;;19.90;65.50;;;;;;6215143;23;20027;-72
2021/11/14 01:35:15;;;;;;;0.70;0.50;;;19.80;65.40;;;;;;6138503;23;20000;-72
2021/11/14 01:37:42;;;;;;;0.65;0.47;;;19.80;65.40;;;;;;6188532;23;19997;-72
2021/11/14 01:40:09;;;;;;;1.25;0.30;;;19.90;65.50;;;;;;6215001;23;20348;-72
2021/11/14 01:42:35;;;;;;;0.70;0.40;;;19.80;65.50;;;;;;6164192;23;20428;-72
2021/11/14 01:45:00;;;;;;;1.33;0.70;;;19.90;66.50;;;;;;6214919;23;20005;-72
2021/11/14 01:47:26;;;;;;;1.27;0.60;;;19.80;65.50;;;;;;6188387;23;20011;-72
2021/11/14 01:49:51;;;;;;;0.20;0.20;;;19.80;65.50;;;;;;6214625;23;20421;-72
2021/11/14 01:52:21;;;;;;;0.30;0.30;;;19.80;65.50;;;;;;6188212;23;20004;-72
2021/11/14 01:54:47;;;;;;;0.85;0.43;;;19.80;65.60;;;;;;6214906;23;20000;-72
2021/11/14 01:57:13;;;;;;;0.30;0.30;;;19.80;65.50;;;;;;6188357;23;20344;-72
2021/11/14 01:59:38;;;;;;;1.42;0.40;;;19.80;65.60;;;;;;6214890;23;20032;-72
2021/11/14 02:02:04;;;;;;;0.98;0.35;;;19.80;65.50;;;;;;6188577;23;19996;-72
2021/11/14 02:04:30;;;;;;;0.30;0.30;;;19.80;65.60;;;;;;6214739;23;20381;-72
2021/11/14 02:06:55;;;;;;;0.70;0.30;;;19.80;65.70;;;;;;6138898;23;20024;-72
2021/11/14 02:09:21;;;;;;;0.40;0.30;;;19.80;65.70;;;;;;6188464;23;20005;-72
2021/11/14 02:11:46;;;;;;;0.65;0.55;;;19.80;65.70;;;;;;6163528;23;20039;-72
2021/11/14 02:14:12;;;;;;;0.73;0.30;;;19.80;65.70;;;;;;6214474;23;20059;-72
2021/11/14 02:16:38;;;;;;;2.05;0.30;;;19.80;65.70;;;;;;6188477;23;20440;-72
2021/11/14 02:19:04;;;;;;;0.70;0.45;;;19.80;65.70;;;;;;6187857;23;20000;-72
2021/11/14 02:21:29;;;;;;;0.60;0.50;;;19.80;65.80;;;;;;6188050;23;20023;-72
2021/11/14 02:23:55;;;;;;;0.50;0.30;;;19.80;65.80;;;;;;6214791;23;20440;-72
2021/11/14 02:26:23;;;;;;;1.23;0.52;;;19.80;65.80;;;;;;6187949;23;20017;-72
2021/11/14 02:28:49;;;;;;;0.40;0.35;;;19.80;65.80;;;;;;6164366;23;20000;-72
2021/11/14 02:31:14;;;;;;;1.13;0.60;;;19.80;65.80;;;;;;6188162;23;20000;-72
2021/11/14 02:33:40;;;;;;;2.50;0.50;;;19.80;65.80;;;;;;6163130;23;20011;-72
2021/11/14 02:36:07;;;;;;;1.70;0.40;;;19.80;65.80;;;;;;6214481;23;20084;-72
2021/11/14 02:38:33;;;;;;;0.35;0.35;;;19.80;65.80;;;;;;6214519;23;20561;-72
2021/11/14 02:40:59;;;;;;;0.98;0.38;;;19.80;65.90;;;;;;6163507;23;20045;-72
2021/11/14 02:43:25;;;;;;;1.67;0.38;;;19.80;65.90;;;;;;6188047;23;20000;-72
2021/11/14 02:45:51;;;;;;;0.38;0.30;;;19.80;66.00;;;;;;6163551;23;20059;-72
2021/11/14 02:48:17;;;;;;;0.50;0.30;;;19.70;65.90;;;;;;6138728;23;20009;-72
2021/11/14 02:50:44;;;;;;;0.40;0.30;;;19.70;65.90;;;;;;6214763;23;20027;-72
2021/11/14 02:53:09;;;;;;;1.00;0.47;;;19.80;66.00;;;;;;6188366;23;20000;-72
2021/11/14 02:55:35;;;;;;;1.23;0.30;;;19.70;66.00;;;;;;6188094;23;20011;-72
2021/11/14 02:58:01;;;;;;;1.13;0.32;;;19.70;66.00;;;;;;6214664;23;20466;-72
2021/11/14 03:00:33;;;;;;;0.80;0.40;;;19.70;66.00;;;;;;6214409;23;20347;-72
2021/11/14 03:02:59;;;;;;;0.98;0.40;;;19.70;66.00;;;;;;6188905;23;20431;-72
2021/11/14 03:05:25;;;;;;;0.30;0.30;;;19.70;66.10;;;;;;6214454;23;20051;-72
2021/11/14 03:07:52;;;;;;;1.15;0.50;;;19.70;66.10;;;;;;6188219;23;20008;-72
2021/11/14 03:10:20;;;;;;;0.95;0.40;;;19.70;66.10;;;;;;6187887;23;20348;-72
2021/11/14 03:13:13;;;;;;;0.52;0.30;;;19.70;66.10;;;;;;6163352;23;20009;-72
2021/11/14 03:15:40;;;;;;;;;;;19.70;66.20;;;;;;6183566;23;20086;-72
2021/11/14 03:18:06;;;;;;;1.20;0.30;;;19.60;66.30;;;;;;6187703;23;19899;-72
2021/11/14 03:20:32;;;;;;;1.48;0.52;;;19.60;66.40;;;;;;6187947;23;20401;-72
2021/11/14 03:22:58;;;;;;;1.20;0.40;;;19.60;67.40;;;;;;6188087;23;20001;-72
2021/11/14 03:25:25;;;;;;;0.68;0.40;;;19.60;66.30;;;;;;6187657;23;20027;-72
2021/11/14 03:27:51;;;;;;;0.77;0.40;;;19.70;66.40;;;;;;6188169;23;20001;-72
2021/11/14 03:30:17;;;;;;;0.70;0.63;;;19.70;66.40;;;;;;6187889;23;20004;-72
2021/11/14 03:32:42;;;;;;;2.25;0.40;;;19.70;66.40;;;;;;6189259;23;20027;-72
2021/11/14 03:35:08;;;;;;;0.50;0.50;;;19.70;66.50;;;;;;6189632;23;20340;-72
2021/11/14 03:37:34;;;;;;;1.20;0.60;;;19.60;66.40;;;;;;6215949;23;20007;-72
2021/11/14 03:39:59;;;;;;;0.50;0.30;;;19.70;66.40;;;;;;6189962;23;19996;-72
2021/11/14 03:42:25;;;;;;;0.68;0.40;;;19.70;66.40;;;;;;6215952;23;20072;-72
2021/11/14 03:44:51;;;;;;;0.30;0.30;;;19.60;66.40;;;;;;6216184;23;20011;-72
2021/11/14 03:47:17;;;;;;;0.22;0.22;;;19.70;66.50;;;;;;6215599;23;20004;-72
2021/11/14 03:49:42;;;;;;;0.63;0.35;;;19.60;66.40;;;;;;6189624;23;20435;-72
2021/11/14 03:52:09;;;;;;;0.50;0.32;;;19.70;66.50;;;;;;6189613;23;20007;-72
2021/11/14 03:54:35;;;;;;;2.63;0.63;;;19.70;66.60;;;;;;6164568;23;20385;-72
2021/11/14 03:57:00;;;;;;;0.30;0.30;;;19.60;66.50;;;;;;6189544;23;19996;-72
2021/11/14 03:59:26;;;;;;;0.55;0.30;;;19.70;66.50;;;;;;6189578;23;20071;-72
2021/11/14 04:01:52;;;;;;;0.77;0.38;;;19.70;66.60;;;;;;6189109;23;20075;-72
2021/11/14 04:04:17;;;;;;;0.40;0.20;;;19.70;66.60;;;;;;6189417;23;20001;-72
2021/11/14 04:06:43;;;;;;;1.27;0.40;;;19.70;66.60;;;;;;6216061;23;20486;-72
2021/11/14 04:09:08;;;;;;;1.88;0.40;;;19.60;66.50;;;;;;6215893;23;19996;-72
2021/11/14 04:11:34;;;;;;;0.55;0.40;;;19.70;66.60;;;;;;6164503;23;20008;-72
2021/11/14 04:13:59;;;;;;;0.47;0.30;;;19.70;66.60;;;;;;6215837;23;20377;-72
2021/11/14 04:16:25;;;;;;;0.57;0.40;;;19.60;66.50;;;;;;6188655;23;20012;-72
2021/11/14 04:18:51;;;;;;;1.88;0.35;;;19.60;66.60;;;;;;6215806;23;20031;-72
2021/11/14 04:21:16;;;;;;;0.65;0.30;;;19.60;66.60;;;;;;6215854;23;20082;-72
2021/11/14 04:23:42;;;;;;;1.30;0.57;;;19.70;66.70;;;;;;6188999;23;20090;-72
2021/11/14 04:26:08;;;;;;;0.32;0.30;;;19.70;66.70;;;;;;6164144;23;20016;-72
2021/11/14 04:28:35;;;;;;;0.20;0.20;;;19.60;66.60;;;;;;6164655;23;20004;-72
2021/11/14 04:31:00;;;;;;;0.20;0.20;;;19.60;66.70;;;;;;6164376;23;20347;-72
2021/11/14 04:33:26;;;;;;;0.35;0.32;;;19.60;66.70;;;;;;6215581;23;20075;-72
2021/11/14 04:35:51;;;;;;;0.90;0.40;;;19.60;66.70;;;;;;6215604;23;20079;-72
2021/11/14 04:38:17;;;;;;;0.82;0.50;;;19.60;66.80;;;;;;6189119;23;20023;-72
2021/11/14 04:40:45;;;;;;;0.30;0.30;;;19.70;66.80;;;;;;6189108;23;19996;-72
2021/11/14 04:43:12;;;;;;;0.95;0.32;;;19.60;66.80;;;;;;6189324;23;20001;-72
2021/11/14 04:45:38;;;;;;;1.55;0.47;;;19.60;66.80;;;;;;6164109;23;20011;-72
2021/11/14 04:48:04;;;;;;;0.60;0.30;;;19.60;66.80;;;;;;6189149;23;20087;-72
2021/11/14 04:50:30;;;;;;;0.28;0.25;;;19.60;66.70;;;;;;6189016;23;20005;-72
2021/11/14 04:52:56;;;;;;;0.65;0.32;;;19.60;66.80;;;;;;6189032;23;20004;-72
2021/11/14 04:55:21;;;;;;;1.20;0.40;;;19.60;66.80;;;;;;6215528;23;20416;-72
2021/11/14 04:57:51;;;;;;;0.88;0.40;;;19.60;66.80;;;;;;6164125;23;20001;-72
2021/11/14 05:00:24;;;;;;;0.38;0.20;;;19.60;66.80;;;;;;6189385;23;20005;-72
2021/11/14 05:02:50;;;;;;;0.30;0.30;;;19.60;66.90;;;;;;6215321;23;19996;-72
2021/11/14 05:05:15;;;;;;;0.10;0.10;;;19.60;66.90;;;;;;6189036;23;20054;-72
2021/11/14 05:07:41;;;;;;;0.30;0.30;;;19.60;66.90;;;;;;6188735;23;20008;-72
2021/11/14 05:10:07;;;;;;;0.65;0.40;;;19.60;67.00;;;;;;6164132;23;20055;-72
2021/11/14 05:12:32;;;;;;;0.30;0.30;;;19.60;67.00;;;;;;6215089;23;20000;-72
2021/11/14 05:14:58;;;;;;;0.85;0.40;;;19.60;67.00;;;;;;6188676;23;20388;-72
2021/11/14 05:17:24;;;;;;;0.25;0.20;;;19.60;67.00;;;;;;6188736;23;20004;-72
2021/11/14 05:19:50;;;;;;;1.02;0.35;;;19.60;67.00;;;;;;6188716;23;20007;-72
2021/11/14 05:22:16;;;;;;;0.25;0.20;;;19.60;67.00;;;;;;6188811;23;20022;-72
2021/11/14 05:24:42;;;;;;;0.85;0.47;;;19.60;67.10;;;;;;6188391;23;20054;-72
2021/11/14 05:27:07;;;;;;;0.80;0.28;;;19.60;67.00;;;;;;6188314;23;20443;-72
2021/11/14 05:29:33;;;;;;;0.20;0.20;;;19.60;67.10;;;;;;6214920;23;20011;-72
2021/11/14 05:31:59;;;;;;;1.00;0.30;;;19.60;67.10;;;;;;6215181;23;20000;-72
2021/11/14 05:34:24;;;;;;;0.68;0.40;;;19.60;67.10;;;;;;6163609;23;20011;-72
2021/11/14 05:36:50;;;;;;;0.30;0.13;;;19.60;67.10;;;;;;6188574;23;20000;-72
2021/11/14 05:39:16;;;;;;;0.77;0.30;;;19.60;67.10;;;;;;6215061;23;20435;-72
2021/11/14 05:41:41;;;;;;;2.30;0.30;;;19.60;67.10;;;;;;6214540;23;19996;-72
2021/11/14 05:44:08;;;;;;;0.20;0.20;;;19.60;67.10;;;;;;6215099;23;20004;-72
2021/11/14 05:46:34;;;;;;;0.85;0.30;;;19.60;67.10;;;;;;6188657;23;19997;-72
2021/11/14 05:49:00;;;;;;;0.40;0.20;;;19.60;67.20;;;;;;6214872;23;20078;-72
2021/11/14 05:51:25;;;;;;;0.68;0.22;;;19.60;67.20;;;;;;6163990;23;19997;-72
2021/11/14 05:53:51;;;;;;;0.35;0.30;;;19.60;67.20;;;;;;6188830;23;20067;-72
2021/11/14 05:56:17;;;;;;;1.25;0.22;;;19.60;67.20;;;;;;6214538;23;20027;-72
2021/11/14 05:58:50;;;;;;;1.40;0.30;;;19.60;67.30;;;;;;6214795;23;20005;-72
2021/11/14 06:01:19;;;;;;;0.98;0.22;;;19.50;67.20;;;;;;6190307;23;19997;-72
2021/11/14 06:06:11;;;;;;;0.20;0.20;;;19.50;67.30;;;;;;6188468;23;20011;-72
2021/11/14 06:08:36;;;;;;;0.65;0.20;;;19.60;67.40;;;;;;6214778;23;20451;-72
2021/11/14 06:11:02;;;;;;;1.15;0.40;;;19.60;67.40;;;;;;6163012;23;20092;-72
2021/11/14 06:13:28;;;;;;;0.85;0.30;;;19.60;67.40;;;;;;6163258;23;20463;-72
2021/11/14 06:15:55;;;;;;;0.35;0.25;;;19.60;67.40;;;;;;6188306;23;20083;-72
2021/11/14 06:18:21;;;;;;;0.28;0.25;;;19.60;67.40;;;;;;6188272;23;20003;-72
2021/11/14 06:20:46;;;;;;;1.98;0.30;;;19.60;67.40;;;;;;6188227;23;19996;-72
2021/11/14 06:23:12;;;;;;;1.48;0.30;;;19.60;67.40;;;;;;6163639;23;20391;-72
2021/11/14 06:25:38;;;;;;;0.90;0.35;;;19.60;67.40;;;;;;6162741;23;20028;-72
2021/11/14 06:28:04;;;;;;;0.30;0.30;;;19.60;67.50;;;;;;6214728;23;20004;-72
2021/11/14 06:30:29;;;;;;;0.22;0.20;;;19.60;67.50;;;;;;6188314;23;20029;-72
2021/11/14 06:32:56;;;;;;;0.50;0.40;;;19.50;67.50;;;;;;6163475;23;20359;-72
2021/11/14 06:35:22;;;;;;;0.45;0.30;;;19.60;67.50;;;;;;6163618;23;20008;-72
2021/11/14 06:37:47;;;;;;;0.30;0.30;;;19.60;67.50;;;;;;6163410;23;19997;-72
2021/11/14 06:40:13;;;;;;;0.57;0.25;;;19.60;67.50;;;;;;6214309;23;20000;-72
2021/11/14 06:42:39;;;;;;;0.52;0.30;;;19.60;67.50;;;;;;6163454;23;20071;-72
2021/11/14 06:45:05;;;;;;;0.52;0.32;;;19.50;67.50;;;;;;6214517;23;20011;-72
2021/11/14 06:47:31;;;;;;;0.50;0.25;;;19.60;67.60;;;;;;6163395;23;20079;-72
2021/11/14 06:49:56;;;;;;;0.75;0.30;;;19.60;67.60;;;;;;6185985;23;20035;-72
2021/11/14 06:52:22;;;;;;;0.15;0.15;;;19.60;67.70;;;;;;6213495;23;20001;-72
2021/11/14 06:54:49;;;;;;;0.25;0.25;;;19.60;67.70;;;;;;6186629;23;20000;-72
2021/11/14 06:57:14;;;;;;;0.45;0.20;;;19.60;67.70;;;;;;6213795;23;20080;-72
2021/11/14 06:59:40;;;;;;;0.57;0.20;;;19.50;67.60;;;;;;6187255;23;20028;-72
2021/11/14 07:02:06;;;;;;;0.28;0.20;;;19.60;67.60;;;;;;6187242;23;20063;-72
2021/11/14 07:04:32;;;;;;;0.55;0.30;;;19.60;67.60;;;;;;6213692;23;20001;-72
2021/11/14 07:06:58;;;;;;;0.30;0.30;;;19.60;67.60;;;;;;6214987;23;20009;-72
2021/11/14 07:09:23;;;;;;;1.75;0.22;;;19.60;67.60;;;;;;6189782;23;20004;-72
2021/11/14 07:11:50;;;;;;;0.47;0.32;;;19.60;67.70;;;;;;6216394;23;20004;-72
2021/11/14 07:14:16;;;;;;;0.65;0.45;;;19.60;67.70;;;;;;6190032;23;20079;-72
2021/11/14 07:16:41;;;;;;;0.30;0.25;;;19.50;67.60;;;;;;6216325;23;19997;-72
2021/11/14 07:19:07;;;;;;;0.65;0.30;;;19.50;67.60;;;;;;6189844;23;19997;-72
2021/11/14 07:21:32;;;;;;;1.20;0.30;;;19.50;67.60;;;;;;6190014;23;20499;-72
2021/11/14 07:23:58;;;;;;;0.13;0.13;;;19.50;67.60;;;;;;6189407;23;20001;-72
2021/11/14 07:26:24;;;;;;;0.20;0.20;;;19.50;67.60;;;;;;6189595;23;20025;-72
2021/11/14 07:28:50;;;;;;;0.28;0.28;;;19.50;67.60;;;;;;6216156;23;20448;-72
2021/11/14 07:31:15;;;;;;;0.98;0.30;;;19.50;67.60;;;;;;6216450;23;20008;-72
2021/11/14 07:33:41;;;;;;;0.20;0.20;;;19.50;67.70;;;;;;6189896;23;20005;-72
2021/11/14 07:36:07;;;;;;;1.52;0.20;;;19.60;67.70;;;;;;6216066;23;20071;-72
2021/11/14 07:38:32;;;;;;;0.65;0.25;;;19.60;67.70;;;;;;6215945;23;20007;-72
2021/11/14 07:40:58;;;;;;;0.70;0.30;;;19.50;67.70;;;;;;6189549;23;19997;-72
2021/11/14 07:43:24;;;;;;;0.65;0.35;;;19.50;67.70;;;;;;6189965;23;20004;-72
2021/11/14 07:45:49;;;;;;;0.17;0.17;;;19.50;67.70;;;;;;6215871;23;20459;-72
2021/11/14 07:48:15;;;;;;;0.80;0.40;;;19.60;67.80;;;;;;6216127;23;20001;-72
2021/11/14 07:50:40;;;;;;;0.65;0.38;;;19.50;67.80;;;;;;6215985;23;20054;-72
2021/11/14 07:53:06;;;;;;;0.88;0.22;;;19.50;67.70;;;;;;6189177;23;20011;-72
2021/11/14 07:55:32;;;;;;;0.20;0.13;;;19.60;67.80;;;;;;6164563;23;20344;-72
2021/11/14 07:57:59;;;;;;;1.02;0.30;;;19.60;67.80;;;;;;6189648;23;20396;-72
2021/11/14 08:00:25;;;;;;;0.90;0.20;;;19.60;67.80;;;;;;6164527;23;20434;-72
2021/11/14 08:02:50;;;;;;;1.67;0.20;;;19.60;67.80;;;;;;6164369;23;20058;-72
2021/11/14 08:05:16;;;;;;;1.00;0.40;;;19.60;67.80;;;;;;6216065;23;20075;-72
2021/11/14 08:07:42;;;;;;;0.47;0.28;;;19.60;67.80;;;;;;6164244;23;20000;-72
2021/11/14 08:10:08;;;;;;;0.88;0.40;;;19.50;68.90;;;;;;6164555;23;20482;-72
2021/11/14 08:12:34;;;;;;;0.47;0.20;;;19.60;67.90;;;;;;6164962;23;20021;-72
2021/11/14 08:14:59;;;;;;;0.20;0.17;;;19.60;67.90;;;;;;6164213;23;20071;-72
2021/11/14 08:17:25;;;;;;;0.30;0.30;;;19.50;67.80;;;;;;6164139;23;20032;-72
2021/11/14 08:19:51;;;;;;;1.20;0.40;;;19.60;67.90;;;;;;6215719;23;20046;-72
2021/11/14 08:22:17;;;;;;;0.80;0.30;;;19.60;68.00;;;;;;6215363;23;20343;-72
2021/11/14 08:24:42;;;;;;;0.52;0.20;;;19.60;68.00;;;;;;6189116;23;20001;-72
2021/11/14 08:27:08;;;;;;;0.77;0.35;;;19.50;67.90;;;;;;6188954;23;20004;-72
2021/11/14 08:29:34;;;;;;;0.35;0.32;;;19.50;67.90;;;;;;6215650;23;20079;-72
2021/11/14 08:31:59;;;;;;;0.30;0.15;;;19.50;68.00;;;;;;6215644;23;20008;-72
2021/11/14 08:34:25;;;;;;;0.63;0.30;;;19.60;68.00;;;;;;6188990;23;20517;-72
2021/11/14 08:36:50;;;;;;;1.00;0.40;;;19.50;68.00;;;;;;6215085;23;20045;-72
2021/11/14 08:39:16;;;;;;;0.52;0.30;;;19.60;68.00;;;;;;6215562;23;20008;-72
2021/11/14 08:41:42;;;;;;;0.75;0.45;;;19.60;68.10;;;;;;6215589;23;20367;-72
2021/11/14 08:44:07;;;;;;;0.77;0.40;;;19.60;68.10;;;;;;6215560;23;20000;-72
2021/11/14 08:46:34;;;;;;;0.52;0.30;;;19.60;68.10;;;;;;6188976;23;20076;-72
2021/11/14 08:48:59;;;;;;;0.50;0.40;;;19.50;68.00;;;;;;6189125;23;20462;-72
2021/11/14 08:51:25;;;;;;;1.38;0.30;;;19.50;68.10;;;;;;6188566;23;20001;-72
2021/11/14 08:53:57;;;;;;;0.52;0.20;;;19.50;68.10;;;;;;6188986;23;20063;-73
2021/11/14 08:56:23;;;;;;;0.50;0.30;;;19.60;68.20;;;;;;6190376;23;20078;-73
2021/11/14 08:58:49;;;;;;;2.72;0.55;;;19.60;68.20;;;;;;6215276;23;19996;-72
2021/11/14 09:01:14;;;;;;;0.17;0.17;;;19.50;68.20;;;;;;6215358;23;20003;-72
2021/11/14 09:03:40;;;;;;;2.25;0.40;;;19.60;68.10;;;;;;6188729;23;20075;-72
2021/11/14 09:06:06;;;;;;;1.67;0.40;;;19.60;68.20;;;;;;6215369;23;20008;-72
2021/11/14 09:08:31;;;;;;;0.30;0.30;;;19.60;68.20;;;;;;6216163;23;20000;-72
2021/11/14 09:10:57;;;;;;;0.25;0.22;;;19.50;68.20;;;;;;6189111;23;20422;-72
2021/11/14 09:13:24;;;;;;;0.52;0.40;;;19.50;68.20;;;;;;6189385;23;20072;-72
2021/11/14 09:15:51;;;;;;;2.72;0.40;;;19.50;68.20;;;;;;6215528;23;20009;-73
2021/11/14 09:18:17;;;;;;;0.43;0.40;;;19.50;68.20;;;;;;6187784;23;20055;-71
2021/11/14 09:20:44;;;;;;;0.30;0.30;;;19.50;68.30;;;;;;6163844;23;20079;-70
2021/11/14 09:23:09;;;;;;;1.05;0.50;;;19.50;68.30;;;;;;6188894;23;19996;-70
2021/11/14 09:25:39;;;;;;;0.77;0.43;;;19.60;68.40;;;;;;6163507;23;20020;-70
2021/11/14 09:28:06;;;;;;;0.40;0.40;;;19.60;68.40;;;;;;6189404;23;20005;-70
2021/11/14 09:30:32;;;;;;;0.50;0.50;;;19.60;68.40;;;;;;6188661;23;20005;-70
2021/11/14 09:32:58;;;;;;;0.30;0.30;;;19.60;68.50;;;;;;6215067;23;20072;-71
2021/11/14 09:35:24;;;;;;;1.75;0.32;;;19.70;68.60;;;;;;6188490;23;20004;-71
2021/11/14 09:37:49;;;;;;;0.30;0.30;;;19.70;68.50;;;;;;6215299;23;20000;-70
2021/11/14 09:40:15;;;;;;;0.52;0.38;;;19.70;68.50;;;;;;6215179;23;20023;-71
2021/11/14 09:42:41;;;;;;;0.20;0.20;;;19.70;68.50;;;;;;6189050;23;20416;-71
2021/11/14 09:45:08;;;;;;;0.38;0.38;;;19.70;68.50;;;;;;6188641;23;20008;-70
2021/11/14 09:47:35;;;;;;;0.68;0.40;;;19.80;68.60;;;;;;6189076;23;20008;-71
2021/11/14 09:50:03;;;;;;;0.40;0.30;;;19.80;68.60;;;;;;6188155;23;20007;-70
2021/11/14 09:52:28;;;;;;;0.68;0.30;;;19.80;68.50;;;;;;6214905;23;20085;-70
2021/11/14 09:54:54;;;;;;;0.55;0.30;;;19.90;68.60;;;;;;6215081;23;20043;-70
2021/11/14 09:57:20;;;;;;;0.35;0.20;;;19.90;68.60;;;;;;6188635;23;19996;-70
2021/11/14 09:59:45;;;;;;;0.22;0.20;;;19.90;68.50;;;;;;6164047;23;20011;-70
2021/11/14 10:02:11;;;;;;;0.25;0.20;;;19.90;68.60;;;;;;6214920;23;20000;-70
2021/11/14 10:04:37;;;;;;;0.38;0.20;;;19.90;68.50;;;;;;6188157;23;20459;-70
2021/11/14 10:07:08;;;;;;;0.25;0.22;;;20.00;68.70;;;;;;6214343;23;20151;-70
2021/11/14 10:09:38;;;;;;;0.30;0.20;;;20.00;68.60;;;;;;6188814;23;20004;-70
2021/11/14 10:12:17;;;;;;;0.40;0.40;;;20.00;68.50;;;;;;6188878;23;20000;-73
2021/11/14 10:14:43;;;;;;;0.22;0.22;;;20.00;68.40;;;;;;6188568;23;20004;-72
2021/11/14 10:17:19;;;;;;;1.25;0.32;;;20.00;68.50;;;;;;6187830;23;20005;-73
2021/11/14 10:19:45;;;;;;;0.30;0.30;;;20.10;68.50;;;;;;6214842;23;20027;-73
2021/11/14 10:22:10;;;;;;;1.70;0.60;;;20.10;68.60;;;;;;6163403;23;20428;-73
2021/11/14 10:24:37;;;;;;;0.20;0.20;;;20.10;68.50;;;;;;6163140;23;20080;-73
2021/11/14 10:27:12;;;;;;;1.00;0.50;;;20.10;68.50;;;;;;6163195;23;20062;-73
2021/11/14 10:29:39;;;;;;;0.20;0.20;;;20.20;68.40;;;;;;6163757;23;20047;-73
2021/11/14 10:32:09;;;;;;;0.30;0.20;;;20.20;68.50;;;;;;6188545;23;20005;-73
2021/11/14 10:34:47;;;;;;;0.63;0.30;;;20.20;68.50;;;;;;6188601;23;20023;-72
2021/11/14 10:37:13;;;;;;;0.20;0.20;;;20.20;68.40;;;;;;6188280;23;20007;-73
2021/11/14 10:39:40;;;;;;;0.43;0.30;;;20.20;68.40;;;;;;6163651;23;20001;-73
2021/11/14 10:42:15;;;;;;;2.17;0.45;;;20.20;68.40;;;;;;6188235;23;20040;-73
2021/11/14 10:44:52;;;;;;;0.82;0.30;;;20.30;68.30;;;;;;6164016;23;20000;-71
2021/11/14 10:47:23;;;;;;;0.47;0.40;;;20.30;68.30;;;;;;6163836;23;20372;-72
2021/11/14 10:50:00;;;;;;;0.75;0.30;;;20.30;68.30;;;;;;6215134;23;20004;-72
2021/11/14 10:52:27;;;;;;;0.65;0.30;;;20.30;68.20;;;;;;6188030;23;20009;-72
2021/11/14 10:54:55;;;;;;;0.77;0.20;;;20.30;68.30;;;;;;6188471;23;20447;-72
2021/11/14 10:57:24;;;;;;;0.20;0.20;;;20.30;68.30;;;;;;6187037;23;20007;-72
2021/11/14 10:59:52;;;;;;;0.65;0.30;;;20.40;68.30;;;;;;6163471;23;20023;-72
2021/11/14 11:02:19;;;;;;;3.38;0.47;;;20.40;68.20;;;;;;6163480;23;19997;-72
2021/11/14 11:04:46;;;;;;;2.00;0.30;;;20.40;68.20;;;;;;6188199;23;20076;-72
2021/11/14 11:07:11;;;;;;;0.20;0.20;;;20.40;68.20;;;;;;6163720;23;20005;-72
2021/11/14 11:09:39;;;;;;;0.35;0.30;;;20.40;68.20;;;;;;6188001;23;20074;-72
2021/11/14 11:12:26;;;;;;;0.63;0.20;;;20.40;68.10;;;;;;6188683;23;20054;-72
2021/11/14 11:15:01;;;;;;;0.38;0.35;;;20.50;67.90;;;;;;6214896;23;20050;-72
2021/11/14 11:17:27;;;;;;;0.22;0.22;;;20.50;68.10;;;;;;6214501;23;20024;-72
2021/11/14 11:19:59;;;;;;;0.35;0.32;;;20.40;68.00;;;;;;6214735;23;20004;-73
2021/11/14 11:22:25;;;;;;;0.20;0.20;;;20.50;68.10;;;;;;6164037;23;20063;-72
2021/11/14 11:24:52;;;;;;;0.20;0.20;;;20.50;68.10;;;;;;6162915;23;20095;-72
2021/11/14 11:27:18;;;;;;;0.30;0.30;;;20.50;68.10;;;;;;6213965;23;20008;-72
2021/11/14 11:29:44;;;;;;;0.25;0.25;;;20.50;68.00;;;;;;6187618;23;20510;-72
2021/11/14 11:32:10;;;;;;;0.30;0.25;;;20.50;68.00;;;;;;6214542;23;20005;-72
2021/11/14 11:34:36;;;;;;;0.20;0.20;;;20.50;68.00;;;;;;6187991;23;20009;-71
2021/11/14 11:37:01;;;;;;;1.75;0.28;;;20.50;67.90;;;;;;6162952;23;19997;-72
2021/11/14 11:39:28;;;;;;;0.88;0.25;;;20.50;67.90;;;;;;6187777;23;20215;-71
2021/11/14 11:41:55;;;;;;;0.32;0.30;;;20.60;67.90;;;;;;6187701;23;20012;-71
2021/11/14 11:44:20;;;;;;;0.55;0.30;;;20.50;67.80;;;;;;6213355;23;20000;-71
2021/11/14 11:46:50;;;;;;;0.35;0.30;;;20.60;67.80;;;;;;6187682;23;20468;-71
2021/11/14 11:49:21;;;;;;;0.55;0.22;;;20.50;67.70;;;;;;6214586;23;20063;-71
2021/11/14 11:51:49;;;;;;;1.55;0.50;;;20.50;67.70;;;;;;6162979;23;20011;-71
2021/11/14 11:54:19;;;;;;;0.68;0.28;;;20.50;67.60;;;;;;6215564;23;20012;-71
2021/11/14 11:56:58;;;;;;;0.45;0.45;;;20.50;67.60;;;;;;6214236;23;20348;-71
2021/11/14 11:59:35;;;;;;;0.50;0.30;;;20.50;67.50;;;;;;6213812;23;20454;-71
2021/11/14 12:02:06;;;;;;;0.68;0.30;;;20.50;67.60;;;;;;6189027;23;20001;-71
2021/11/14 12:04:37;;;;;;;0.25;0.25;;;20.40;67.50;;;;;;6187559;23;20000;-71
2021/11/14 12:07:17;;;;;;;0.47;0.30;;;20.40;67.40;;;;;;6188002;23;20443;-68
2021/11/14 12:09:45;;;;;;;0.20;0.20;;;20.40;67.40;;;;;;6165133;23;20001;-68
2021/11/14 12:12:29;;;;;;;2.40;0.75;;;20.40;67.50;;;;;;6188302;23;20076;-78
2021/11/14 12:15:10;;;;;;;11.50;1.40;;;20.40;67.40;;;;;;6215028;23;20007;-76
2021/11/14 12:17:37;;;;;;;4.53;1.30;;;20.40;67.70;;;;;;6216127;23;20369;-75
2021/11/14 12:20:11;;;;;;;5.47;1.40;;;20.40;67.70;;;;;;6165285;23;20095;-75
2021/11/14 12:22:41;;;;;;;8.32;1.90;;;20.40;67.70;;;;;;6165112;23;20023;-76
2021/11/14 12:25:07;;;;;;;5.70;1.90;;;20.50;67.80;;;;;;6189911;23;20039;-76
2021/11/14 12:27:35;;;;;;;4.30;1.52;;;20.50;67.90;;;;;;6216129;23;20015;-75
2021/11/14 12:30:08;;;;;;;9.68;2.05;;;20.50;67.80;;;;;;6216504;23;20008;-76
2021/11/14 12:33:00;;;;;;;8.45;1.73;;;20.50;67.80;;;;;;6189333;23;20008;-75
2021/11/14 12:35:43;;;;;;;9.52;1.75;;;20.60;67.60;;;;;;6183929;23;20392;-75
2021/11/14 12:38:11;;;;;;;7.53;1.50;;;20.60;67.80;;;;;;6168363;23;20007;-74
2021/11/14 12:40:40;;;;;;;9.90;1.50;;;20.60;67.80;;;;;;6189866;23;20000;-75
2021/11/14 12:43:07;;;;;;;7.18;1.55;;;20.60;67.90;;;;;;6189159;23;20005;-75
2021/11/14 12:45:43;;;;;;;5.75;2.05;;;20.60;67.80;;;;;;6216031;23;20025;-73
2021/11/14 12:48:11;;;;;;;7.68;1.98;;;20.60;67.70;;;;;;6189541;23;20036;-73